sensor_id;sensor_type;location;lat;lon;timestamp;P1;durP1;ratioP1;P2;durP2;ratioP2
12912;SDS011;6524;51.368;11.984;2023-05-01T04:06:42;9.00;;;7.23;;
12912;SDS011;6524;51.368;11.984;2023-05-01T04:11:42;8.77;;;7.23;;
12912;SDS011;6524;51.368;11.984;2023-05-01T04:16:43;10.97;;;8.03;;
12912;SDS011;6524;51.368;11.984;2023-05-01T04:21:43;9.60;;;7.27;;
12912;SDS011;6524;51.368;11.984;2023-05-01T04:26:43;9.53;;;7.13;;
12912;SDS011;6524;51.368;11.984;2023-05-01T04:31:44;9.40;;;7.00;;
12912;SDS011;6524;51.368;11.984;2023-05-01T04:36:44;8.83;;;7.23;;
12912;SDS011;6524;51.368;11.984;2023-05-01T04:41:45;10.50;;;8.27;;
12912;SDS011;6524;51.368;11.984;2023-05-01T04:46:45;10.27;;;8.10;;
12912;SDS011;6524;51.368;11.984;2023-05-01T04:51:45;10.67;;;8.43;;
12912;SDS011;6524;51.368;11.984;2023-05-01T04:56:46;9.13;;;7.83;;
12912;SDS011;6524;51.368;11.984;2023-05-01T05:01:46;10.13;;;7.70;;
12912;SDS011;6524;51.368;11.984;2023-05-01T05:06:46;9.50;;;8.03;;
12912;SDS011;6524;51.368;11.984;2023-05-01T05:11:47;9.47;;;7.80;;
12912;SDS011;6524;51.368;11.984;2023-05-01T05:16:47;10.70;;;7.37;;
12912;SDS011;6524;51.368;11.984;2023-05-01T05:21:48;9.60;;;8.13;;
12912;SDS011;6524;51.368;11.984;2023-05-01T05:26:48;9.27;;;8.10;;
12912;SDS011;6524;51.368;11.984;2023-05-01T05:31:48;9.67;;;8.27;;
12912;SDS011;6524;51.368;11.984;2023-05-01T05:36:49;9.97;;;7.80;;
12912;SDS011;6524;51.368;11.984;2023-05-01T05:41:49;9.73;;;7.33;;
12912;SDS011;6524;51.368;11.984;2023-05-01T05:46:51;10.43;;;7.93;;
12912;SDS011;6524;51.368;11.984;2023-05-01T05:51:51;12.90;;;9.60;;
12912;SDS011;6524;51.368;11.984;2023-05-01T05:56:54;11.60;;;10.33;;
12912;SDS011;6524;51.368;11.984;2023-05-01T06:01:54;12.40;;;9.90;;
12912;SDS011;6524;51.368;11.984;2023-05-01T06:06:55;13.90;;;10.60;;
12912;SDS011;6524;51.368;11.984;2023-05-01T06:11:56;13.83;;;10.37;;
12912;SDS011;6524;51.368;11.984;2023-05-01T06:16:57;13.50;;;11.23;;
12912;SDS011;6524;51.368;11.984;2023-05-01T06:21:57;16.20;;;11.20;;
12912;SDS011;6524;51.368;11.984;2023-05-01T06:26:58;13.18;;;11.45;;
12912;SDS011;6524;51.368;11.984;2023-05-01T06:31:58;17.42;;;12.07;;
12912;SDS011;6524;51.368;11.984;2023-05-01T06:36:59;15.13;;;11.40;;
12912;SDS011;6524;51.368;11.984;2023-05-01T06:41:59;22.00;;;12.35;;
12912;SDS011;6524;51.368;11.984;2023-05-01T06:47:01;15.48;;;12.98;;
12912;SDS011;6524;51.368;11.984;2023-05-01T06:52:02;16.60;;;13.32;;
12912;SDS011;6524;51.368;11.984;2023-05-01T06:57:02;16.45;;;13.48;;
12912;SDS011;6524;51.368;11.984;2023-05-01T07:02:02;15.43;;;12.68;;
12912;SDS011;6524;51.368;11.984;2023-05-01T07:07:03;15.77;;;12.82;;
12912;SDS011;6524;51.368;11.984;2023-05-01T07:12:04;16.02;;;14.30;;
12912;SDS011;6524;51.368;11.984;2023-05-01T07:17:05;18.00;;;14.30;;
12912;SDS011;6524;51.368;11.984;2023-05-01T07:22:05;16.05;;;13.80;;
12912;SDS011;6524;51.368;11.984;2023-05-01T07:27:06;16.52;;;14.82;;
12912;SDS011;6524;51.368;11.984;2023-05-01T07:32:07;15.88;;;14.27;;
12912;SDS011;6524;51.368;11.984;2023-05-01T07:37:08;16.48;;;14.35;;
12912;SDS011;6524;51.368;11.984;2023-05-01T07:42:09;16.25;;;14.73;;
12912;SDS011;6524;51.368;11.984;2023-05-01T07:47:10;16.50;;;14.82;;
12912;SDS011;6524;51.368;11.984;2023-05-01T07:52:10;15.88;;;14.38;;
12912;SDS011;6524;51.368;11.984;2023-05-01T07:57:11;17.08;;;15.05;;
12912;SDS011;6524;51.368;11.984;2023-05-01T08:02:11;16.63;;;14.95;;
12912;SDS011;6524;51.368;11.984;2023-05-01T08:07:13;17.35;;;15.65;;
12912;SDS011;6524;51.368;11.984;2023-05-01T08:12:13;17.83;;;15.57;;
12912;SDS011;6524;51.368;11.984;2023-05-01T08:17:14;17.37;;;15.63;;
12912;SDS011;6524;51.368;11.984;2023-05-01T08:22:14;17.45;;;15.52;;
12912;SDS011;6524;51.368;11.984;2023-05-01T08:27:15;17.50;;;15.63;;
12912;SDS011;6524;51.368;11.984;2023-05-01T08:32:17;19.85;;;17.05;;
12912;SDS011;6524;51.368;11.984;2023-05-01T08:37:18;19.98;;;17.50;;
12912;SDS011;6524;51.368;11.984;2023-05-01T08:42:18;18.17;;;16.30;;
12912;SDS011;6524;51.368;11.984;2023-05-01T08:47:19;18.92;;;16.98;;
12912;SDS011;6524;51.368;11.984;2023-05-01T08:52:21;17.30;;;15.60;;
12912;SDS011;6524;51.368;11.984;2023-05-01T08:57:22;18.80;;;16.90;;
12912;SDS011;6524;51.368;11.984;2023-05-01T09:02:26;22.45;;;18.52;;
12912;SDS011;6524;51.368;11.984;2023-05-01T09:07:31;17.98;;;16.05;;
12912;SDS011;6524;51.368;11.984;2023-05-01T09:12:31;16.13;;;14.48;;
12912;SDS011;6524;51.368;11.984;2023-05-01T09:17:37;16.27;;;14.57;;
12912;SDS011;6524;51.368;11.984;2023-05-01T09:22:38;15.48;;;13.85;;
12912;SDS011;6524;51.368;11.984;2023-05-01T09:27:39;15.55;;;13.77;;
12912;SDS011;6524;51.368;11.984;2023-05-01T09:32:39;15.00;;;13.60;;
12912;SDS011;6524;51.368;11.984;2023-05-01T09:37:40;17.03;;;15.33;;
12912;SDS011;6524;51.368;11.984;2023-05-01T09:42:48;15.98;;;14.38;;
12912;SDS011;6524;51.368;11.984;2023-05-01T09:47:49;15.68;;;13.90;;
12912;SDS011;6524;51.368;11.984;2023-05-01T09:52:50;15.27;;;13.70;;
12912;SDS011;6524;51.368;11.984;2023-05-01T09:57:52;18.33;;;16.42;;
12912;SDS011;6524;51.368;11.984;2023-05-01T10:02:53;16.77;;;14.93;;
12912;SDS011;6524;51.368;11.984;2023-05-01T10:07:57;16.92;;;15.23;;
12912;SDS011;6524;51.368;11.984;2023-05-01T10:18:14;16.75;;;15.02;;
12912;SDS011;6524;51.368;11.984;2023-05-01T10:23:16;15.80;;;14.13;;
12912;SDS011;6524;51.368;11.984;2023-05-01T10:28:16;14.30;;;12.80;;
12912;SDS011;6524;51.368;11.984;2023-05-01T10:33:22;12.50;;;11.18;;
12912;SDS011;6524;51.368;11.984;2023-05-01T10:38:29;12.23;;;10.95;;
12912;SDS011;6524;51.368;11.984;2023-05-01T10:43:35;14.80;;;13.38;;
12912;SDS011;6524;51.368;11.984;2023-05-01T10:53:37;14.50;;;13.10;;
12912;SDS011;6524;51.368;11.984;2023-05-01T11:03:39;13.52;;;12.10;;
12912;SDS011;6524;51.368;11.984;2023-05-01T11:08:39;10.93;;;9.80;;
12912;SDS011;6524;51.368;11.984;2023-05-01T11:19:00;12.13;;;11.02;;
12912;SDS011;6524;51.368;11.984;2023-05-01T11:24:01;10.30;;;8.87;;
12912;SDS011;6524;51.368;11.984;2023-05-01T11:29:02;7.53;;;6.78;;
12912;SDS011;6524;51.368;11.984;2023-05-01T11:34:04;8.40;;;7.47;;
12912;SDS011;6524;51.368;11.984;2023-05-01T11:39:07;9.55;;;8.57;;
12912;SDS011;6524;51.368;11.984;2023-05-01T11:44:14;10.18;;;8.90;;
12912;SDS011;6524;51.368;11.984;2023-05-01T11:49:16;10.45;;;9.30;;
12912;SDS011;6524;51.368;11.984;2023-05-01T11:54:26;8.85;;;8.02;;
12912;SDS011;6524;51.368;11.984;2023-05-01T11:59:26;10.80;;;9.70;;
12912;SDS011;6524;51.368;11.984;2023-05-01T12:04:27;11.05;;;9.95;;
12912;SDS011;6524;51.368;11.984;2023-05-01T12:09:28;11.05;;;10.05;;
12912;SDS011;6524;51.368;11.984;2023-05-01T12:14:30;10.63;;;9.63;;
12912;SDS011;6524;51.368;11.984;2023-05-01T12:19:30;9.98;;;8.98;;
12912;SDS011;6524;51.368;11.984;2023-05-01T12:24:31;9.57;;;8.57;;
12912;SDS011;6524;51.368;11.984;2023-05-01T12:29:38;9.17;;;8.27;;
12912;SDS011;6524;51.368;11.984;2023-05-01T12:34:40;8.15;;;7.35;;
12912;SDS011;6524;51.368;11.984;2023-05-01T12:39:41;9.48;;;7.50;;
12912;SDS011;6524;51.368;11.984;2023-05-01T12:44:43;8.77;;;7.55;;
12912;SDS011;6524;51.368;11.984;2023-05-01T12:49:44;7.80;;;7.00;;
12912;SDS011;6524;51.368;11.984;2023-05-01T12:54:44;8.70;;;6.82;;
12912;SDS011;6524;51.368;11.984;2023-05-01T12:59:45;8.48;;;6.72;;
12912;SDS011;6524;51.368;11.984;2023-05-01T13:04:46;8.38;;;7.57;;
12912;SDS011;6524;51.368;11.984;2023-05-01T13:09:50;11.00;;;7.35;;
12912;SDS011;6524;51.368;11.984;2023-05-01T13:14:51;8.57;;;7.10;;
12912;SDS011;6524;51.368;11.984;2023-05-01T13:20:01;7.75;;;6.95;;
12912;SDS011;6524;51.368;11.984;2023-05-01T13:25:16;7.78;;;6.60;;
12912;SDS011;6524;51.368;11.984;2023-05-01T13:30:20;7.80;;;6.75;;
12912;SDS011;6524;51.368;11.984;2023-05-01T13:35:30;7.85;;;6.65;;
12912;SDS011;6524;51.368;11.984;2023-05-01T13:40:31;7.30;;;6.60;;
12912;SDS011;6524;51.368;11.984;2023-05-01T13:45:33;11.07;;;9.10;;
12912;SDS011;6524;51.368;11.984;2023-05-01T13:50:33;8.27;;;7.20;;
12912;SDS011;6524;51.368;11.984;2023-05-01T13:55:34;6.82;;;6.22;;
12912;SDS011;6524;51.368;11.984;2023-05-01T14:00:34;7.50;;;6.70;;
12912;SDS011;6524;51.368;11.984;2023-05-01T14:05:35;7.47;;;6.68;;
12912;SDS011;6524;51.368;11.984;2023-05-01T14:10:35;8.15;;;7.03;;
12912;SDS011;6524;51.368;11.984;2023-05-01T14:15:37;6.57;;;5.97;;
12912;SDS011;6524;51.368;11.984;2023-05-01T14:20:45;7.47;;;6.68;;
12912;SDS011;6524;51.368;11.984;2023-05-01T14:25:49;7.57;;;6.80;;
12912;SDS011;6524;51.368;11.984;2023-05-01T14:30:50;7.78;;;6.60;;
12912;SDS011;6524;51.368;11.984;2023-05-01T14:35:52;7.70;;;6.47;;
12912;SDS011;6524;51.368;11.984;2023-05-01T14:40:52;6.60;;;6.00;;
12912;SDS011;6524;51.368;11.984;2023-05-01T14:45:53;7.32;;;6.25;;
12912;SDS011;6524;51.368;11.984;2023-05-01T14:50:54;7.65;;;6.18;;
12912;SDS011;6524;51.368;11.984;2023-05-01T14:55:54;6.90;;;6.20;;
12912;SDS011;6524;51.368;11.984;2023-05-01T15:00:55;7.10;;;6.40;;
12912;SDS011;6524;51.368;11.984;2023-05-01T15:05:56;7.07;;;6.38;;
12912;SDS011;6524;51.368;11.984;2023-05-01T15:10:56;6.80;;;6.10;;
12912;SDS011;6524;51.368;11.984;2023-05-01T15:15:56;6.37;;;5.83;;
12912;SDS011;6524;51.368;11.984;2023-05-01T15:20:57;6.72;;;5.93;;
12912;SDS011;6524;51.368;11.984;2023-05-01T15:25:57;6.73;;;6.03;;
12912;SDS011;6524;51.368;11.984;2023-05-01T15:30:59;6.95;;;6.25;;
12912;SDS011;6524;51.368;11.984;2023-05-01T15:36:01;6.78;;;6.18;;
12912;SDS011;6524;51.368;11.984;2023-05-01T15:41:01;6.55;;;5.95;;
12912;SDS011;6524;51.368;11.984;2023-05-01T15:46:02;6.60;;;5.95;;
12912;SDS011;6524;51.368;11.984;2023-05-01T15:51:02;7.63;;;6.07;;
12912;SDS011;6524;51.368;11.984;2023-05-01T15:56:03;6.15;;;5.60;;
12912;SDS011;6524;51.368;11.984;2023-05-01T16:01:04;7.50;;;6.80;;
12912;SDS011;6524;51.368;11.984;2023-05-01T16:06:04;7.47;;;5.90;;
12912;SDS011;6524;51.368;11.984;2023-05-01T16:11:05;6.63;;;6.03;;
12912;SDS011;6524;51.368;11.984;2023-05-01T16:16:09;6.47;;;5.80;;
12912;SDS011;6524;51.368;11.984;2023-05-01T16:21:11;6.95;;;6.25;;
12912;SDS011;6524;51.368;11.984;2023-05-01T16:26:20;6.55;;;5.95;;
12912;SDS011;6524;51.368;11.984;2023-05-01T16:31:21;6.80;;;6.15;;
12912;SDS011;6524;51.368;11.984;2023-05-01T16:36:21;7.13;;;6.38;;
12912;SDS011;6524;51.368;11.984;2023-05-01T16:41:22;7.00;;;6.23;;
12912;SDS011;6524;51.368;11.984;2023-05-01T16:46:24;7.65;;;6.55;;
12912;SDS011;6524;51.368;11.984;2023-05-01T16:51:24;7.25;;;6.20;;
12912;SDS011;6524;51.368;11.984;2023-05-01T16:56:25;6.75;;;6.15;;
12912;SDS011;6524;51.368;11.984;2023-05-01T17:01:26;7.25;;;5.90;;
12912;SDS011;6524;51.368;11.984;2023-05-01T17:06:29;7.45;;;6.05;;
12912;SDS011;6524;51.368;11.984;2023-05-01T17:11:30;6.63;;;6.03;;
12912;SDS011;6524;51.368;11.984;2023-05-01T17:16:31;8.65;;;6.07;;
12912;SDS011;6524;51.368;11.984;2023-05-01T17:21:32;7.00;;;6.30;;
12912;SDS011;6524;51.368;11.984;2023-05-01T17:26:32;7.60;;;6.50;;
12912;SDS011;6524;51.368;11.984;2023-05-01T17:31:33;7.07;;;6.38;;
12912;SDS011;6524;51.368;11.984;2023-05-01T17:36:33;7.70;;;6.90;;
12912;SDS011;6524;51.368;11.984;2023-05-01T17:41:33;8.05;;;6.75;;
12912;SDS011;6524;51.368;11.984;2023-05-01T17:46:34;9.88;;;8.88;;
12912;SDS011;6524;51.368;11.984;2023-05-01T17:51:37;11.20;;;8.73;;
12912;SDS011;6524;51.368;11.984;2023-05-01T17:56:38;19.10;;;14.47;;
12912;SDS011;6524;51.368;11.984;2023-05-01T18:01:38;12.07;;;9.43;;
12912;SDS011;6524;51.368;11.984;2023-05-01T18:06:38;10.48;;;8.52;;
12912;SDS011;6524;51.368;11.984;2023-05-01T18:11:39;7.97;;;7.10;;
12912;SDS011;6524;51.368;11.984;2023-05-01T18:16:39;8.10;;;7.30;;
12912;SDS011;6524;51.368;11.984;2023-05-01T18:21:41;7.40;;;6.63;;
12912;SDS011;6524;51.368;11.984;2023-05-01T18:26:41;7.70;;;6.85;;
12912;SDS011;6524;51.368;11.984;2023-05-01T18:31:42;8.68;;;7.15;;
12912;SDS011;6524;51.368;11.984;2023-05-01T18:36:42;8.63;;;7.73;;
12912;SDS011;6524;51.368;11.984;2023-05-01T18:41:42;8.15;;;6.90;;
12912;SDS011;6524;51.368;11.984;2023-05-01T18:46:43;10.05;;;7.53;;
12912;SDS011;6524;51.368;11.984;2023-05-01T18:51:43;8.32;;;7.05;;
12912;SDS011;6524;51.368;11.984;2023-05-01T18:56:44;8.38;;;7.40;;
12912;SDS011;6524;51.368;11.984;2023-05-01T19:01:44;8.97;;;8.07;;
12912;SDS011;6524;51.368;11.984;2023-05-01T19:06:45;15.85;;;11.98;;
12912;SDS011;6524;51.368;11.984;2023-05-01T19:11:45;8.82;;;7.97;;
12912;SDS011;6524;51.368;11.984;2023-05-01T19:16:45;10.68;;;8.93;;
12912;SDS011;6524;51.368;11.984;2023-05-01T19:21:46;9.48;;;8.50;;
12912;SDS011;6524;51.368;11.984;2023-05-01T19:26:48;8.73;;;7.85;;
12912;SDS011;6524;51.368;11.984;2023-05-01T19:31:48;9.60;;;8.60;;
12912;SDS011;6524;51.368;11.984;2023-05-01T19:36:49;10.52;;;8.68;;
12912;SDS011;6524;51.368;11.984;2023-05-01T19:41:55;10.68;;;9.50;;
12912;SDS011;6524;51.368;11.984;2023-05-01T19:46:55;9.65;;;8.18;;
12912;SDS011;6524;51.368;11.984;2023-05-01T19:51:56;8.57;;;7.70;;
12912;SDS011;6524;51.368;11.984;2023-05-01T19:56:56;10.20;;;8.18;;
12912;SDS011;6524;51.368;11.984;2023-05-01T20:01:57;9.93;;;8.02;;
12912;SDS011;6524;51.368;11.984;2023-05-01T20:06:57;9.43;;;8.15;;
12912;SDS011;6524;51.368;11.984;2023-05-01T20:12:01;9.77;;;8.13;;
12912;SDS011;6524;51.368;11.984;2023-05-01T20:17:02;9.18;;;8.13;;
12912;SDS011;6524;51.368;11.984;2023-05-01T20:22:03;8.48;;;7.68;;
12912;SDS011;6524;51.368;11.984;2023-05-01T20:27:03;9.32;;;7.72;;
12912;SDS011;6524;51.368;11.984;2023-05-01T20:32:04;10.07;;;8.35;;
12912;SDS011;6524;51.368;11.984;2023-05-01T20:37:04;9.38;;;8.38;;
12912;SDS011;6524;51.368;11.984;2023-05-01T20:42:05;8.18;;;7.38;;
12912;SDS011;6524;51.368;11.984;2023-05-01T20:47:06;8.45;;;7.65;;
12912;SDS011;6524;51.368;11.984;2023-05-01T20:52:09;8.40;;;7.13;;
12912;SDS011;6524;51.368;11.984;2023-05-01T20:57:09;8.15;;;7.35;;
12912;SDS011;6524;51.368;11.984;2023-05-01T21:02:10;8.27;;;7.47;;
12912;SDS011;6524;51.368;11.984;2023-05-01T21:07:10;9.20;;;8.25;;
12912;SDS011;6524;51.368;11.984;2023-05-01T21:12:11;7.43;;;6.57;;
12912;SDS011;6524;51.368;11.984;2023-05-01T21:17:12;8.20;;;7.38;;
12912;SDS011;6524;51.368;11.984;2023-05-01T21:22:23;7.90;;;7.10;;
12912;SDS011;6524;51.368;11.984;2023-05-01T21:27:24;8.57;;;7.00;;
12912;SDS011;6524;51.368;11.984;2023-05-01T21:32:29;8.30;;;7.35;;
12912;SDS011;6524;51.368;11.984;2023-05-01T21:37:38;7.82;;;7.03;;
12912;SDS011;6524;51.368;11.984;2023-05-01T21:42:39;7.88;;;6.95;;
12912;SDS011;6524;51.368;11.984;2023-05-01T21:47:41;7.38;;;6.68;;
12912;SDS011;6524;51.368;11.984;2023-05-01T21:52:44;6.97;;;6.32;;
12912;SDS011;6524;51.368;11.984;2023-05-01T21:57:46;8.27;;;6.85;;
12912;SDS011;6524;51.368;11.984;2023-05-01T22:02:49;7.70;;;6.90;;
12912;SDS011;6524;51.368;11.984;2023-05-01T22:07:51;8.93;;;6.90;;
12912;SDS011;6524;51.368;11.984;2023-05-01T22:12:52;8.18;;;6.82;;
12912;SDS011;6524;51.368;11.984;2023-05-01T22:17:52;8.82;;;7.30;;
12912;SDS011;6524;51.368;11.984;2023-05-01T22:22:53;7.53;;;6.78;;
12912;SDS011;6524;51.368;11.984;2023-05-01T22:27:53;8.20;;;7.22;;
12912;SDS011;6524;51.368;11.984;2023-05-01T22:32:53;8.02;;;6.90;;
12912;SDS011;6524;51.368;11.984;2023-05-01T22:37:54;7.85;;;7.15;;
12912;SDS011;6524;51.368;11.984;2023-05-01T22:42:55;7.55;;;6.85;;
12912;SDS011;6524;51.368;11.984;2023-05-01T22:47:55;9.18;;;6.90;;
12912;SDS011;6524;51.368;11.984;2023-05-01T22:52:55;7.95;;;7.05;;
12912;SDS011;6524;51.368;11.984;2023-05-01T22:57:56;7.60;;;6.85;;
12912;SDS011;6524;51.368;11.984;2023-05-01T23:02:57;7.35;;;6.60;;
12912;SDS011;6524;51.368;11.984;2023-05-01T23:07:58;8.07;;;7.25;;
12912;SDS011;6524;51.368;11.984;2023-05-01T23:12:58;7.97;;;7.22;;
12912;SDS011;6524;51.368;11.984;2023-05-01T23:17:59;7.25;;;6.63;;
12912;SDS011;6524;51.368;11.984;2023-05-01T23:22:59;7.70;;;6.90;;
12912;SDS011;6524;51.368;11.984;2023-05-01T23:28:04;7.93;;;7.13;;
12912;SDS011;6524;51.368;11.984;2023-05-01T23:33:05;7.68;;;6.97;;
12912;SDS011;6524;51.368;11.984;2023-05-01T23:38:05;7.53;;;6.82;;
12912;SDS011;6524;51.368;11.984;2023-05-01T23:43:06;8.30;;;7.32;;
12912;SDS011;6524;51.368;11.984;2023-05-01T23:48:07;8.77;;;7.72;;
12912;SDS011;6524;51.368;11.984;2023-05-01T23:53:08;10.95;;;8.30;;
12912;SDS011;6524;51.368;11.984;2023-05-01T23:58:09;8.50;;;7.55;;
